Vintondale, Pennsylvania
Current Conditions -  °F | °C
As of 11:54 AM on Tuesday 27 Jan 2015 (Local Time) from KJST Reporting Station
Haze Haze  
Wind Chill:   Ceiling: 700
Heat Index: 18°   Visibility: 4mi
Dew Point: 14°   Wind: 12mph
Humidity: 84%   Direction: 300°WNW
Pressure: 29.78"   Gusts: NA
Location:  40.48°N, 78.92°W
Report Text: KJST 271654Z AUTO 30010KT 4SM BR OVC007 M08/M10 A2978 RMK AO2 CIG 006V009 SLP120 T10781100
Loading
Personal Weather Stations






























Interactive Weather Map New forecast layout! Learn more

10-Day Weather Forecast

Advertisements
Track Severe Weather on mobile